createdAt,value
2019-03-19T00:23:52.050Z,84.80
2019-03-19T00:53:55.850Z,85.30
2019-03-19T01:23:59.632Z,85.50
2019-03-19T01:54:03.558Z,84.60
2019-03-19T02:24:07.262Z,85.10
2019-03-19T02:54:11.055Z,86.60
2019-03-19T03:24:14.840Z,87.50
2019-03-19T03:54:18.646Z,88.30
2019-03-19T04:24:22.747Z,88.50
2019-03-19T04:54:26.526Z,88.40
2019-03-19T05:24:30.617Z,88.40
2019-03-19T05:54:34.430Z,87.10
2019-03-19T06:24:38.297Z,90.30
2019-03-19T06:54:42.014Z,85.60
2019-03-19T07:24:48.033Z,83.70
2019-03-19T07:54:51.241Z,74.50
2019-03-19T08:24:54.977Z,60.40
2019-03-19T08:54:58.980Z,54.00
2019-03-19T09:25:02.754Z,53.70
2019-03-19T09:55:09.616Z,54.50
2019-03-19T10:25:14.492Z,56.20
2019-03-19T10:55:18.456Z,50.20
2019-03-19T11:25:24.363Z,48.10
2019-03-19T11:55:28.073Z,53.50
2019-03-19T12:25:31.943Z,51.80
2019-03-19T12:55:35.726Z,51.30
2019-03-19T13:25:39.677Z,49.00
2019-03-19T13:55:43.368Z,45.70
2019-03-19T14:25:47.202Z,45.50
2019-03-19T14:55:50.886Z,46.80
2019-03-19T15:25:54.687Z,48.00
2019-03-19T15:55:58.653Z,47.80
2019-03-19T16:26:02.643Z,48.90
2019-03-19T16:56:07.820Z,56.60
2019-03-19T17:26:11.689Z,61.10
2019-03-19T17:56:15.582Z,60.70
2019-03-19T18:26:19.652Z,65.20
2019-03-19T18:56:23.488Z,68.30
2019-03-19T19:26:27.380Z,69.80
2019-03-19T19:56:31.291Z,70.50
2019-03-19T20:26:35.118Z,73.20
2019-03-19T20:56:38.999Z,73.50
2019-03-19T21:26:42.816Z,75.40
2019-03-19T21:56:46.788Z,77.20
2019-03-19T22:26:50.665Z,79.10
2019-03-19T22:56:54.556Z,79.80
2019-03-19T23:26:58.591Z,78.60
2019-03-19T23:57:02.639Z,76.80
